Time;durP1;ratioP1;P1;durP2;ratioP2;P2;SDS_P1;SDS_P2;PMS_P1;PMS_P2;Temp;Humidity;BMP_temperature;BMP_pressure;BME280_temperature;BME280_humidity;BME280_pressure;Samples;Min_cycle;Max_cycle;Signal;HPM_P1;HPM_P2
2021/07/29 00:04:08;;;;;;;2.70;2.50;;;20.60;41.80;;;;;;10471296;28;20712;-77
2021/07/29 00:09:12;;;;;;;3.10;2.67;;;20.60;42.00;;;;;;10478234;28;20226;-78
2021/07/29 00:14:15;;;;;;;4.20;2.73;;;20.60;41.60;;;;;;10478949;28;20232;-74
2021/07/29 00:19:20;;;;;;;3.57;2.53;;;20.60;41.80;;;;;;10461693;28;20235;-73
2021/07/29 00:24:25;;;;;;;3.03;2.53;;;20.50;41.80;;;;;;10458244;28;20610;-68
2021/07/29 00:29:28;;;;;;;3.30;2.67;;;20.40;41.80;;;;;;10466760;28;20232;-68
2021/07/29 00:34:33;;;;;;;3.07;2.73;;;20.40;41.80;;;;;;10467841;28;20237;-70
2021/07/29 00:39:36;;;;;;;2.90;2.70;;;20.40;41.90;;;;;;10460729;28;20228;-71
2021/07/29 00:44:39;;;;;;;4.00;3.20;;;20.30;41.80;;;;;;10459374;28;20239;-71
2021/07/29 00:49:45;;;;;;;2.57;2.37;;;20.20;41.70;;;;;;10463420;28;20232;-71
2021/07/29 00:54:50;;;;;;;2.50;2.30;;;20.10;42.20;;;;;;10455157;28;20243;-71
2021/07/29 00:59:54;;;;;;;2.60;2.40;;;20.10;42.40;;;;;;10460357;28;20228;-71
2021/07/29 01:04:59;;;;;;;3.40;2.40;;;20.10;42.50;;;;;;10456028;28;20232;-71
2021/07/29 01:10:02;;;;;;;4.30;2.93;;;20.10;43.00;;;;;;10463899;28;20217;-71
2021/07/29 01:15:06;;;;;;;4.33;2.97;;;20.10;42.60;;;;;;10457288;28;20225;-71
2021/07/29 01:20:21;;;;;;;3.70;2.43;;;20.10;42.80;;;;;;10459735;28;20224;-71
2021/07/29 01:25:24;;;;;;;2.17;2.07;;;20.10;43.30;;;;;;10463196;28;20330;-71
2021/07/29 01:30:27;;;;;;;3.13;2.87;;;20.10;42.70;;;;;;10460722;28;20601;-71
2021/07/29 01:35:32;;;;;;;2.80;2.60;;;20.20;42.90;;;;;;10464294;28;20224;-78
2021/07/29 01:40:36;;;;;;;2.77;2.57;;;20.20;43.20;;;;;;10465624;28;20240;-78
2021/07/29 01:45:39;;;;;;;4.00;2.40;;;20.20;42.90;;;;;;10458638;28;20496;-78
2021/07/29 01:50:44;;;;;;;5.67;2.67;;;20.20;42.90;;;;;;10468896;28;20231;-79
2021/07/29 01:55:48;;;;;;;4.10;2.43;;;20.20;43.30;;;;;;10456860;28;20244;-78
2021/07/29 02:00:53;;;;;;;3.10;2.80;;;20.20;43.20;;;;;;10472385;28;20723;-78
2021/07/29 02:06:02;;;;;;;5.30;2.80;;;20.20;43.30;;;;;;10471022;28;20231;-78
2021/07/29 02:11:05;;;;;;;4.57;2.73;;;20.20;43.70;;;;;;10474171;28;20221;-79
2021/07/29 02:16:10;;;;;;;4.97;2.93;;;20.20;43.10;;;;;;10464027;28;20224;-78
2021/07/29 02:21:15;;;;;;;5.97;2.90;;;20.20;43.50;;;;;;10459315;28;20225;-79
2021/07/29 02:26:18;;;;;;;4.47;2.80;;;20.10;43.60;;;;;;10467336;28;20216;-79
2021/07/29 02:31:22;;;;;;;3.07;2.67;;;20.10;43.50;;;;;;10460506;28;20232;-79
2021/07/29 02:36:26;;;;;;;3.67;3.03;;;20.10;43.50;;;;;;10468622;28;20232;-78
2021/07/29 02:41:31;;;;;;;5.90;2.43;;;20.10;43.90;;;;;;10465531;28;20235;-78
2021/07/29 02:46:34;;;;;;;3.00;2.70;;;20.10;43.60;;;;;;10471238;28;20230;-78
2021/07/29 02:51:39;;;;;;;3.13;2.70;;;20.10;43.70;;;;;;10464196;28;20257;-77
2021/07/29 02:56:42;;;;;;;4.03;3.00;;;20.00;43.90;;;;;;10454921;28;20224;-78
2021/07/29 03:01:45;;;;;;;4.23;2.77;;;20.00;43.80;;;;;;10462376;28;20237;-78
2021/07/29 03:06:50;;;;;;;2.73;2.53;;;20.10;43.80;;;;;;10470527;28;20229;-79
2021/07/29 03:11:53;;;;;;;2.50;2.30;;;20.10;44.00;;;;;;10465551;28;20240;-78
2021/07/29 03:16:56;;;;;;;3.33;3.00;;;20.10;43.80;;;;;;10461954;28;20235;-79
2021/07/29 03:22:01;;;;;;;3.23;2.50;;;20.10;43.70;;;;;;10471646;28;20228;-78
2021/07/29 03:27:05;;;;;;;4.03;2.87;;;20.10;43.60;;;;;;10466649;28;20236;-73
2021/07/29 03:32:09;;;;;;;5.33;3.20;;;20.10;43.60;;;;;;10449278;28;20225;-73
2021/07/29 03:37:13;;;;;;;4.30;2.73;;;20.00;43.70;;;;;;10455855;28;20709;-73
2021/07/29 03:42:18;;;;;;;4.70;2.80;;;20.00;44.10;;;;;;10465235;28;20236;-73
2021/07/29 03:47:21;;;;;;;2.77;2.57;;;19.90;43.80;;;;;;10460342;28;20233;-73
2021/07/29 03:52:26;;;;;;;3.53;2.60;;;19.90;44.20;;;;;;10464592;28;20232;-73
2021/07/29 03:57:33;;;;;;;5.03;2.70;;;19.80;44.60;;;;;;10457662;28;20232;-73
2021/07/29 04:02:36;;;;;;;4.73;3.23;;;19.80;44.40;;;;;;10458461;28;20660;-73
2021/07/29 04:07:41;;;;;;;3.23;2.77;;;19.90;44.50;;;;;;10464350;28;20223;-73
2021/07/29 04:12:44;;;;;;;4.17;2.90;;;19.90;44.90;;;;;;10461509;28;20229;-73
2021/07/29 04:17:47;;;;;;;5.30;3.20;;;19.90;44.50;;;;;;10466630;28;20248;-73
2021/07/29 04:22:52;;;;;;;3.03;2.73;;;19.90;44.60;;;;;;10462662;28;20546;-73
2021/07/29 04:27:55;;;;;;;5.10;2.80;;;19.90;45.00;;;;;;10457107;28;20228;-73
2021/07/29 04:32:58;;;;;;;5.63;3.40;;;20.00;44.70;;;;;;10455548;28;20599;-73
2021/07/29 04:38:03;;;;;;;5.13;2.93;;;20.00;44.80;;;;;;10460058;28;20501;-72
2021/07/29 04:43:07;;;;;;;3.67;2.60;;;20.10;45.30;;;;;;10460169;28;20250;-73
2021/07/29 04:48:10;;;;;;;4.00;3.27;;;20.00;44.90;;;;;;10456895;28;20228;-73
2021/07/29 04:53:14;;;;;;;3.37;2.93;;;20.10;45.10;;;;;;10460442;28;20232;-73
2021/07/29 04:58:17;;;;;;;3.77;3.47;;;20.10;45.40;;;;;;10456913;28;20237;-74
2021/07/29 05:03:21;;;;;;;3.73;3.43;;;20.10;45.20;;;;;;10456859;28;20228;-73
2021/07/29 05:08:25;;;;;;;4.97;3.87;;;20.10;45.40;;;;;;10457909;28;20228;-73
2021/07/29 05:13:28;;;;;;;3.57;3.30;;;20.00;45.80;;;;;;10455274;28;20228;-74
2021/07/29 05:18:32;;;;;;;3.87;3.53;;;20.00;45.70;;;;;;10455919;28;20227;-73
2021/07/29 05:23:37;;;;;;;6.80;3.97;;;20.00;46.00;;;;;;10454161;28;20304;-73
2021/07/29 05:28:40;;;;;;;4.00;3.60;;;20.10;47.00;;;;;;10451533;28;20312;-73
2021/07/29 05:33:43;;;;;;;4.67;3.87;;;20.10;46.80;;;;;;10454610;28;20237;-73
2021/07/29 05:38:47;;;;;;;6.70;4.20;;;20.20;47.00;;;;;;10457512;28;20240;-73
2021/07/29 05:43:50;;;;;;;5.20;4.07;;;20.30;47.80;;;;;;10456263;28;20231;-73
2021/07/29 05:48:54;;;;;;;4.10;3.80;;;20.40;47.30;;;;;;10458084;28;20228;-74
2021/07/29 05:53:58;;;;;;;4.93;3.80;;;20.40;47.40;;;;;;10453750;28;20229;-68
2021/07/29 05:59:02;;;;;;;5.53;5.00;;;20.50;48.10;;;;;;10454082;28;20232;-68
2021/07/29 06:04:05;;;;;;;5.20;4.10;;;20.60;47.70;;;;;;10451380;28;20239;-68
2021/07/29 06:09:10;;;;;;;4.80;4.27;;;20.80;48.20;;;;;;10451378;28;20226;-68
2021/07/29 06:14:13;;;;;;;5.27;4.33;;;20.90;48.60;;;;;;10452425;28;20676;-68
2021/07/29 06:19:18;;;;;;;5.60;3.90;;;21.00;48.20;;;;;;10453609;28;20344;-74
2021/07/29 06:24:22;;;;;;;6.97;4.07;;;21.20;48.00;;;;;;10453689;28;20222;-73
2021/07/29 06:29:25;;;;;;;5.27;4.13;;;21.40;47.90;;;;;;10453816;28;20225;-74
2021/07/29 06:34:28;;;;;;;4.07;3.67;;;21.50;47.80;;;;;;10454189;28;20235;-74
2021/07/29 06:39:33;;;;;;;5.73;3.70;;;21.60;47.80;;;;;;10460256;28;20232;-75
2021/07/29 06:44:37;;;;;;;4.80;3.53;;;21.80;48.40;;;;;;10455646;28;20273;-75
2021/07/29 06:49:40;;;;;;;5.60;3.70;;;21.90;48.50;;;;;;10457155;28;20259;-74
2021/07/29 06:54:44;;;;;;;4.40;3.60;;;22.10;47.60;;;;;;10453252;28;20233;-74
2021/07/29 06:59:48;;;;;;;4.10;3.70;;;22.20;47.40;;;;;;10454321;28;20237;-74
2021/07/29 07:04:51;;;;;;;3.90;3.60;;;22.40;47.30;;;;;;10457270;28;20239;-74
2021/07/29 07:09:56;;;;;;;6.80;3.70;;;22.50;47.00;;;;;;10464389;28;20745;-74
2021/07/29 07:14:59;;;;;;;3.93;3.53;;;22.60;47.00;;;;;;10462833;28;20227;-74
2021/07/29 07:20:03;;;;;;;4.73;4.00;;;22.80;46.90;;;;;;10466627;28;20220;-73
2021/07/29 07:25:08;;;;;;;3.80;3.50;;;22.90;46.60;;;;;;10458571;28;20962;-74
2021/07/29 07:30:12;;;;;;;3.87;3.43;;;23.00;46.60;;;;;;10462737;28;20221;-74
2021/07/29 07:35:15;;;;;;;3.83;3.53;;;23.20;46.50;;;;;;10460002;28;20318;-74
2021/07/29 07:40:20;;;;;;;3.50;3.20;;;23.40;46.10;;;;;;10461699;28;20233;-74
2021/07/29 07:45:23;;;;;;;5.10;3.47;;;23.50;45.90;;;;;;10456854;28;20232;-74
2021/07/29 07:50:27;;;;;;;3.50;3.20;;;23.70;45.20;;;;;;10462799;28;20228;-74
2021/07/29 07:55:31;;;;;;;3.70;3.43;;;23.80;45.50;;;;;;10467882;28;20228;-74
2021/07/29 08:00:34;;;;;;;3.77;3.47;;;23.90;45.20;;;;;;10465663;28;20236;-75
2021/07/29 08:05:38;;;;;;;3.50;3.30;;;24.10;45.10;;;;;;10466301;28;20224;-74
2021/07/29 08:10:43;;;;;;;3.57;3.37;;;24.30;45.00;;;;;;10459358;28;20713;-75
2021/07/29 08:15:46;;;;;;;3.87;3.10;;;24.50;44.30;;;;;;10455353;28;20239;-74
2021/07/29 08:20:50;;;;;;;3.60;3.30;;;24.60;42.70;;;;;;10459092;28;20228;-75
2021/07/29 08:25:54;;;;;;;3.07;2.87;;;24.70;41.70;;;;;;10459391;28;20343;-74
2021/07/29 08:30:57;;;;;;;3.13;2.90;;;24.80;40.70;;;;;;10453523;28;20228;-75
2021/07/29 08:36:00;;;;;;;3.47;3.17;;;24.90;41.80;;;;;;10457505;28;20232;-71
2021/07/29 08:41:05;;;;;;;3.50;3.20;;;24.90;41.60;;;;;;10452736;28;20224;-68
2021/07/29 08:46:09;;;;;;;3.17;2.97;;;25.10;41.00;;;;;;10456431;28;20223;-69
2021/07/29 08:51:14;;;;;;;3.60;3.30;;;25.20;41.00;;;;;;10449589;28;20272;-68
2021/07/29 08:56:23;;;;;;;4.07;3.10;;;25.30;41.10;;;;;;10456784;28;20231;-68
2021/07/29 09:01:40;;;;;;;3.90;3.07;;;25.40;39.60;;;;;;10461796;28;20236;-68
2021/07/29 09:06:54;;;;;;;3.43;3.13;;;25.50;39.00;;;;;;10456732;28;20727;-69
2021/07/29 09:12:17;;;;;;;3.87;3.50;;;25.50;37.30;;;;;;10457682;28;20599;-68
2021/07/29 09:17:22;;;;;;;3.27;3.07;;;25.50;37.70;;;;;;10453911;28;20253;-68
2021/07/29 09:22:26;;;;;;;3.30;3.10;;;25.50;39.10;;;;;;10452836;28;20235;-68
2021/07/29 09:27:44;;;;;;;3.20;3.00;;;25.60;38.30;;;;;;10458942;28;20228;-69
2021/07/29 09:32:59;;;;;;;3.10;2.90;;;25.60;38.10;;;;;;10457414;28;20223;-68
2021/07/29 09:38:04;;;;;;;3.47;3.17;;;25.70;38.40;;;;;;10457732;28;20226;-69
2021/07/29 09:43:11;;;;;;;3.33;3.13;;;25.90;38.40;;;;;;10455465;28;20956;-68
2021/07/29 09:48:17;;;;;;;3.10;2.90;;;26.10;37.30;;;;;;10455470;28;20233;-68
2021/07/29 09:53:22;;;;;;;3.43;3.13;;;26.20;37.70;;;;;;10451761;28;20225;-68
2021/07/29 09:58:27;;;;;;;3.23;3.03;;;26.30;37.80;;;;;;10451336;28;20701;-68
2021/07/29 10:03:32;;;;;;;3.97;2.90;;;26.40;37.00;;;;;;10456235;28;20233;-68
2021/07/29 10:08:38;;;;;;;3.30;3.10;;;26.50;36.40;;;;;;10451364;28;20224;-68
2021/07/29 10:13:43;;;;;;;3.27;2.97;;;26.50;33.60;;;;;;10454624;28;20220;-68
2021/07/29 10:19:14;;;;;;;3.30;3.10;;;26.50;35.40;;;;;;10461870;28;20225;-68
2021/07/29 10:24:17;;;;;;;3.13;2.93;;;26.60;34.90;;;;;;10406461;28;20232;-68
2021/07/29 10:29:27;;;;;;;3.27;2.97;;;26.60;35.60;;;;;;10454110;28;20223;-68
2021/07/29 10:34:31;;;;;;;2.90;2.70;;;26.60;34.80;;;;;;10451129;28;20385;-68
2021/07/29 10:39:57;;;;;;;3.50;3.30;;;26.70;35.50;;;;;;10452377;28;20247;-68
2021/07/29 10:45:02;;;;;;;3.13;2.93;;;26.80;33.60;;;;;;10454769;28;20220;-68
2021/07/29 10:50:23;;;;;;;3.13;2.87;;;26.90;34.70;;;;;;10450774;28;20228;-68
2021/07/29 10:55:28;;;;;;;3.33;3.10;;;26.90;34.40;;;;;;10454695;28;20229;-68
2021/07/29 11:00:33;;;;;;;4.10;3.20;;;26.90;34.80;;;;;;10454326;28;20229;-68
2021/07/29 11:05:41;;;;;;;3.47;3.17;;;27.00;34.30;;;;;;10453626;28;20236;-68
2021/07/29 11:10:45;;;;;;;3.43;3.17;;;27.10;33.10;;;;;;10460881;28;20228;-68
2021/07/29 11:15:51;;;;;;;3.30;3.10;;;27.30;34.50;;;;;;10452146;28;20252;-68
2021/07/29 11:20:54;;;;;;;3.60;3.40;;;27.40;33.10;;;;;;10458348;28;20578;-76
2021/07/29 11:25:59;;;;;;;4.50;4.10;;;27.50;33.60;;;;;;10453588;28;20235;-76
2021/07/29 11:31:04;;;;;;;3.90;3.60;;;27.60;33.40;;;;;;10454532;28;20214;-74
2021/07/29 11:36:10;;;;;;;3.73;3.40;;;27.70;31.40;;;;;;10458565;28;20262;-76
2021/07/29 11:41:13;;;;;;;3.80;3.50;;;27.80;32.30;;;;;;10455632;28;20231;-76
2021/07/29 11:46:18;;;;;;;3.23;3.03;;;27.80;33.10;;;;;;10459055;28;20224;-77
2021/07/29 11:51:21;;;;;;;3.43;3.23;;;27.80;32.60;;;;;;10467950;28;20228;-76
2021/07/29 11:56:24;;;;;;;4.00;3.10;;;27.90;32.80;;;;;;10463539;28;20277;-76
2021/07/29 12:01:29;;;;;;;3.37;3.17;;;27.90;32.60;;;;;;10464831;28;20221;-76
2021/07/29 12:06:33;;;;;;;3.47;3.17;;;28.00;32.30;;;;;;10463301;28;20275;-76
2021/07/29 12:11:36;;;;;;;3.83;3.57;;;28.10;32.70;;;;;;10461598;28;20741;-77
2021/07/29 12:16:49;;;;;;;4.00;3.70;;;28.20;31.90;;;;;;10461569;28;20233;-77
2021/07/29 12:21:54;;;;;;;4.00;3.70;;;28.30;30.30;;;;;;10461378;28;20246;-71
2021/07/29 12:27:07;;;;;;;3.60;3.30;;;28.40;31.20;;;;;;10456320;28;20751;-71
2021/07/29 12:32:26;;;;;;;3.50;3.20;;;28.50;30.50;;;;;;10456725;28;20315;-71
2021/07/29 12:37:32;;;;;;;3.53;3.23;;;28.50;30.50;;;;;;10458693;28;20744;-74
2021/07/29 12:42:37;;;;;;;3.50;3.30;;;28.50;30.00;;;;;;10458683;28;20229;-74
2021/07/29 12:47:42;;;;;;;3.47;3.27;;;28.50;30.50;;;;;;10455997;28;20223;-71
2021/07/29 12:52:45;;;;;;;3.73;3.53;;;28.50;30.00;;;;;;10458439;28;20252;-71
2021/07/29 12:57:52;;;;;;;3.80;3.50;;;28.60;30.60;;;;;;10457869;28;20731;-71
2021/07/29 13:02:57;;;;;;;3.57;3.37;;;28.70;29.30;;;;;;10456678;28;20710;-71
2021/07/29 13:08:00;;;;;;;3.40;3.20;;;28.70;29.50;;;;;;10461245;28;20225;-71
2021/07/29 13:13:04;;;;;;;3.27;3.07;;;28.70;30.30;;;;;;10460258;28;20237;-71
2021/07/29 13:18:08;;;;;;;4.10;3.70;;;28.70;30.40;;;;;;10454898;28;20253;-71
2021/07/29 13:23:13;;;;;;;3.83;3.53;;;28.80;28.90;;;;;;10455579;28;20228;-71
2021/07/29 13:28:18;;;;;;;3.50;3.30;;;28.80;29.40;;;;;;10451900;28;20236;-71
2021/07/29 13:33:23;;;;;;;4.00;3.60;;;28.90;29.40;;;;;;10459418;28;20295;-76
2021/07/29 13:38:26;;;;;;;3.67;3.37;;;28.90;29.10;;;;;;10459746;28;20708;-76
2021/07/29 13:43:31;;;;;;;4.13;3.83;;;28.90;29.10;;;;;;10458908;28;20618;-76
2021/07/29 13:48:35;;;;;;;4.20;3.90;;;28.90;28.80;;;;;;10460484;28;20258;-77
2021/07/29 13:53:39;;;;;;;3.80;3.60;;;28.80;27.60;;;;;;10463781;28;20234;-77
2021/07/29 13:58:42;;;;;;;4.00;3.73;;;28.80;28.80;;;;;;10459260;28;20221;-77
2021/07/29 14:03:47;;;;;;;3.70;3.40;;;28.80;28.80;;;;;;10455452;28;20729;-77
2021/07/29 14:08:51;;;;;;;3.70;3.50;;;28.80;28.60;;;;;;10462626;28;21121;-76
2021/07/29 14:13:54;;;;;;;3.60;3.40;;;28.80;29.10;;;;;;10453848;28;20251;-76
2021/07/29 14:19:04;;;;;;;3.50;3.30;;;28.90;28.50;;;;;;10460823;28;20216;-76
2021/07/29 14:24:07;;;;;;;3.87;3.50;;;29.00;28.30;;;;;;10461283;28;20699;-82
2021/07/29 14:29:10;;;;;;;4.10;3.77;;;29.10;28.50;;;;;;10453622;28;20229;-76
2021/07/29 14:34:15;;;;;;;4.07;3.77;;;29.20;27.60;;;;;;10461626;28;20229;-76
2021/07/29 14:39:19;;;;;;;4.10;3.80;;;29.30;27.30;;;;;;10461525;28;20308;-81
2021/07/29 14:44:22;;;;;;;4.40;4.00;;;29.30;27.40;;;;;;10447386;28;20241;-68
2021/07/29 14:49:27;;;;;;;4.43;4.03;;;29.40;27.10;;;;;;10452409;28;20774;-68
2021/07/29 14:54:32;;;;;;;3.87;3.50;;;29.40;26.60;;;;;;10449563;28;20228;-68
2021/07/29 16:09:16;;;;;;;4.83;3.63;;;29.70;25.30;;;;;;10459013;28;20989;-71
2021/07/29 16:14:24;;;;;;;4.27;3.67;;;29.70;24.80;;;;;;10458606;28;20243;-71
2021/07/29 16:19:30;;;;;;;4.07;3.77;;;29.70;25.10;;;;;;10460347;28;20256;-71
2021/07/29 16:24:34;;;;;;;3.50;3.30;;;29.70;24.90;;;;;;10456869;28;20232;-71
2021/07/29 16:29:41;;;;;;;5.83;3.53;;;29.70;24.60;;;;;;10458189;28;20232;-71
2021/07/29 16:34:44;;;;;;;3.97;3.50;;;29.60;24.40;;;;;;10459797;28;20231;-72
2021/07/29 16:39:49;;;;;;;3.93;3.63;;;29.60;25.20;;;;;;10457831;28;20233;-72
2021/07/29 16:44:52;;;;;;;4.57;3.40;;;29.70;24.50;;;;;;10460798;28;20286;-71
2021/07/29 16:49:55;;;;;;;3.87;3.57;;;29.80;24.90;;;;;;10460672;28;20785;-71
2021/07/29 16:55:00;;;;;;;3.47;3.20;;;29.80;24.70;;;;;;10457891;28;20251;-71
2021/07/29 17:00:04;;;;;;;3.77;3.43;;;29.80;23.90;;;;;;10461683;28;20220;-72
2021/07/29 17:05:08;;;;;;;3.93;3.63;;;29.80;24.30;;;;;;10459014;28;20229;-69
2021/07/29 17:10:13;;;;;;;3.90;3.53;;;29.80;24.40;;;;;;10460051;28;20216;-69
2021/07/29 17:15:16;;;;;;;3.90;3.60;;;29.80;23.70;;;;;;10457932;28;20233;-69
2021/07/29 17:20:19;;;;;;;4.07;3.70;;;29.80;24.30;;;;;;10456870;28;20224;-69
2021/07/29 17:25:24;;;;;;;3.90;3.60;;;29.70;24.00;;;;;;10456791;28;20263;-69
2021/07/29 17:30:29;;;;;;;4.40;3.50;;;29.60;23.80;;;;;;10456057;28;20224;-71
2021/07/29 17:35:32;;;;;;;3.93;3.63;;;29.60;24.30;;;;;;10459030;28;20233;-71
2021/07/29 17:40:36;;;;;;;3.77;3.47;;;29.70;24.60;;;;;;10456349;28;20236;-75
2021/07/29 17:45:40;;;;;;;3.50;3.30;;;29.70;24.30;;;;;;10456094;28;20229;-75
2021/07/29 17:50:43;;;;;;;3.70;3.40;;;29.80;24.60;;;;;;10460491;28;20235;-75
2021/07/29 17:55:48;;;;;;;3.90;3.60;;;29.80;24.70;;;;;;10454868;28;20602;-75
2021/07/29 18:00:51;;;;;;;4.60;3.77;;;29.80;24.50;;;;;;10454281;28;20229;-75
2021/07/29 18:05:55;;;;;;;3.90;3.60;;;29.80;24.50;;;;;;10460033;28;20237;-68
2021/07/29 18:10:59;;;;;;;3.87;3.57;;;29.70;24.60;;;;;;10454419;28;20232;-69
2021/07/29 18:16:02;;;;;;;3.80;3.50;;;29.60;24.70;;;;;;10456947;28;20226;-70
2021/07/29 18:21:06;;;;;;;6.43;3.50;;;29.50;24.80;;;;;;10452281;28;20230;-72
2021/07/29 18:26:14;;;;;;;8.13;3.90;;;29.40;24.90;;;;;;10449683;28;20224;-71
2021/07/29 18:31:17;;;;;;;14.13;4.50;;;29.30;25.20;;;;;;10453912;28;20829;-71
2021/07/29 18:36:20;;;;;;;6.57;4.13;;;29.20;25.50;;;;;;10454066;28;20224;-71
2021/07/29 18:41:25;;;;;;;6.40;4.13;;;29.00;25.70;;;;;;10451636;28;20236;-71
2021/07/29 18:46:28;;;;;;;5.27;3.70;;;28.90;25.90;;;;;;10451366;28;20224;-72
2021/07/29 18:51:31;;;;;;;4.53;3.90;;;28.70;25.90;;;;;;10453594;28;20247;-71
2021/07/29 18:56:36;;;;;;;3.70;3.40;;;28.60;26.00;;;;;;10449217;28;20963;-71
2021/07/29 19:01:39;;;;;;;7.23;3.60;;;28.40;26.40;;;;;;10450057;28;20228;-71
2021/07/29 19:06:43;;;;;;;5.00;3.60;;;28.30;26.60;;;;;;10458061;28;20284;-72
2021/07/29 19:11:48;;;;;;;5.27;3.90;;;28.20;26.80;;;;;;10454787;28;20240;-71
2021/07/29 19:16:51;;;;;;;4.57;4.17;;;28.10;27.30;;;;;;10455642;28;20228;-71
2021/07/29 19:21:55;;;;;;;4.80;4.40;;;27.90;27.10;;;;;;10454209;28;20229;-71
2021/07/29 19:27:00;;;;;;;4.80;4.40;;;27.90;27.30;;;;;;10453607;28;20304;-71
2021/07/29 19:32:04;;;;;;;4.43;4.03;;;27.70;27.50;;;;;;10457303;28;20240;-71
2021/07/29 19:37:08;;;;;;;5.03;4.53;;;27.60;27.50;;;;;;10456903;28;20216;-72
2021/07/29 19:42:12;;;;;;;4.50;3.93;;;27.40;27.50;;;;;;10458377;28;20224;-72
2021/07/29 19:47:15;;;;;;;5.07;4.10;;;27.20;27.80;;;;;;10458138;28;20227;-71
2021/07/29 19:52:19;;;;;;;12.37;5.70;;;27.00;27.90;;;;;;10456864;28;20701;-72
2021/07/29 19:57:23;;;;;;;18.03;5.70;;;26.90;28.20;;;;;;10454155;28;20228;-72
2021/07/29 20:02:27;;;;;;;12.53;4.77;;;26.70;28.70;;;;;;10457516;28;20236;-72
2021/07/29 20:07:31;;;;;;;10.07;4.90;;;26.50;28.60;;;;;;10457143;28;20394;-72
2021/07/29 20:12:36;;;;;;;6.83;4.07;;;26.40;28.80;;;;;;10455068;28;20237;-72
2021/07/29 20:17:39;;;;;;;6.50;4.80;;;26.30;29.40;;;;;;10453883;28;20225;-71
2021/07/29 20:22:42;;;;;;;5.67;5.03;;;26.20;29.30;;;;;;10457001;28;20247;-69
2021/07/29 20:27:47;;;;;;;4.93;4.47;;;26.00;29.20;;;;;;10460700;28;20263;-68
2021/07/29 20:32:51;;;;;;;4.73;4.40;;;25.80;29.10;;;;;;10456724;28;20267;-68
2021/07/29 20:37:54;;;;;;;4.63;4.20;;;25.60;29.10;;;;;;10456841;28;20246;-68
2021/07/29 20:42:59;;;;;;;4.83;4.43;;;25.40;29.30;;;;;;10453693;28;20251;-68
2021/07/29 20:48:02;;;;;;;4.80;4.40;;;25.20;29.90;;;;;;10455587;28;20604;-68
2021/07/29 20:53:06;;;;;;;4.83;4.40;;;24.90;29.90;;;;;;10453758;28;21498;-68
2021/07/29 20:58:11;;;;;;;5.20;4.70;;;24.70;30.00;;;;;;10453544;28;20232;-69
2021/07/29 21:03:15;;;;;;;5.17;4.63;;;24.70;30.40;;;;;;10452535;28;20235;-68
2021/07/29 21:08:18;;;;;;;5.17;4.77;;;24.60;30.20;;;;;;10456060;28;20892;-68
2021/07/29 21:13:23;;;;;;;5.00;4.60;;;24.50;30.40;;;;;;10456139;28;20298;-68
2021/07/29 21:18:27;;;;;;;4.80;4.40;;;24.30;30.80;;;;;;10458485;28;20915;-68
2021/07/29 21:23:32;;;;;;;5.63;5.13;;;24.20;30.60;;;;;;10457530;28;20232;-68
2021/07/29 21:28:36;;;;;;;4.83;4.50;;;24.10;31.00;;;;;;10452392;28;21227;-68
2021/07/29 21:33:40;;;;;;;4.80;4.40;;;24.10;31.30;;;;;;10453233;28;20511;-68
2021/07/29 21:38:43;;;;;;;4.40;4.10;;;24.00;31.10;;;;;;10452141;28;20243;-68
2021/07/29 21:43:47;;;;;;;4.70;4.30;;;24.00;31.00;;;;;;10456194;28;20240;-68
2021/07/29 21:48:52;;;;;;;4.53;4.13;;;24.00;31.60;;;;;;10453098;28;20228;-68
2021/07/29 21:53:55;;;;;;;4.73;4.33;;;23.90;31.20;;;;;;10457631;28;21263;-68
2021/07/29 21:59:01;;;;;;;4.20;3.90;;;23.80;31.30;;;;;;10454230;28;20789;-68
2021/07/29 22:04:04;;;;;;;5.33;4.83;;;23.80;31.70;;;;;;10454968;28;20255;-68
2021/07/29 22:09:07;;;;;;;4.67;4.27;;;23.70;31.30;;;;;;10457057;28;20236;-68
2021/07/29 22:14:12;;;;;;;5.43;4.70;;;23.60;31.20;;;;;;10454268;28;20346;-68
2021/07/29 22:19:15;;;;;;;4.60;4.13;;;23.40;31.60;;;;;;10453265;28;20216;-68
2021/07/29 22:24:19;;;;;;;4.23;3.93;;;23.20;31.40;;;;;;10452333;28;20346;-73
2021/07/29 22:29:23;;;;;;;4.20;3.90;;;23.00;31.90;;;;;;10454912;28;20232;-74
2021/07/29 22:34:26;;;;;;;4.90;4.50;;;22.90;32.60;;;;;;10455719;28;20232;-74
2021/07/29 22:39:30;;;;;;;4.60;4.20;;;22.90;32.20;;;;;;10454561;28;20628;-74
2021/07/29 22:44:35;;;;;;;4.73;4.27;;;22.80;32.40;;;;;;10452879;28;20228;-74
2021/07/29 22:49:38;;;;;;;4.73;3.90;;;22.70;32.70;;;;;;10453676;28;20220;-74
2021/07/29 22:54:59;;;;;;;7.57;5.20;;;22.70;32.50;;;;;;10452381;28;20239;-74
2021/07/29 23:00:06;;;;;;;4.97;4.33;;;22.70;32.50;;;;;;10455213;28;20220;-73
2021/07/29 23:05:10;;;;;;;5.10;4.60;;;22.60;32.90;;;;;;10456278;28;20786;-73
2021/07/29 23:10:13;;;;;;;5.33;4.53;;;22.60;32.70;;;;;;10459494;28;20212;-73
2021/07/29 23:15:18;;;;;;;5.20;4.70;;;22.60;32.70;;;;;;10459591;28;20224;-73
2021/07/29 23:20:22;;;;;;;4.90;4.50;;;22.50;33.00;;;;;;10462680;28;20940;-73
2021/07/29 23:28:08;;;;;;;5.17;4.67;;;22.50;32.80;;;;;;10458016;28;21042;-74
2021/07/29 23:30:53;;;;;;;4.63;4.23;;;22.40;32.80;;;;;;10460155;28;20228;-73
2021/07/29 23:35:57;;;;;;;5.10;4.70;;;22.30;33.00;;;;;;10459772;28;20239;-73
2021/07/29 23:41:00;;;;;;;5.10;4.70;;;22.30;33.00;;;;;;10460321;28;20224;-73
2021/07/29 23:46:05;;;;;;;5.77;5.20;;;22.20;33.00;;;;;;10459865;28;20293;-74
2021/07/29 23:51:09;;;;;;;5.40;4.90;;;22.10;33.20;;;;;;10464167;28;20229;-73
2021/07/29 23:56:12;;;;;;;4.70;4.30;;;22.00;33.10;;;;;;10466679;28;20232;-73
